sensor_id;sensor_type;location;lat;lon;timestamp;temperature;humidity
5258;DHT22;2651;51.594;9.928;2022-12-29T00:00:28;10.00;99.90
5258;DHT22;2651;51.594;9.928;2022-12-29T00:01:30;10.00;99.90
5258;DHT22;2651;51.594;9.928;2022-12-29T00:02:32;10.00;99.90
5258;DHT22;2651;51.594;9.928;2022-12-29T00:03:34;10.00;99.90
5258;DHT22;2651;51.594;9.928;2022-12-29T00:04:36;10.00;99.90
5258;DHT22;2651;51.594;9.928;2022-12-29T00:05:37;10.00;99.90
5258;DHT22;2651;51.594;9.928;2022-12-29T00:06:39;10.00;99.90
5258;DHT22;2651;51.594;9.928;2022-12-29T00:07:40;10.00;99.90
5258;DHT22;2651;51.594;9.928;2022-12-29T00:08:42;10.00;99.90
5258;DHT22;2651;51.594;9.928;2022-12-29T00:09:44;10.00;1.00
5258;DHT22;2651;51.594;9.928;2022-12-29T00:10:45;10.00;99.90
5258;DHT22;2651;51.594;9.928;2022-12-29T00:11:47;10.00;99.90
5258;DHT22;2651;51.594;9.928;2022-12-29T00:12:51;10.00;99.90
5258;DHT22;2651;51.594;9.928;2022-12-29T00:14:12;10.00;1.00
5258;DHT22;2651;51.594;9.928;2022-12-29T00:15:32;10.10;1.00
5258;DHT22;2651;51.594;9.928;2022-12-29T00:16:44;10.00;1.00
5258;DHT22;2651;51.594;9.928;2022-12-29T00:17:46;10.00;1.00
5258;DHT22;2651;51.594;9.928;2022-12-29T00:18:48;10.00;1.00
5258;DHT22;2651;51.594;9.928;2022-12-29T00:19:50;10.00;1.00
5258;DHT22;2651;51.594;9.928;2022-12-29T00:21:14;10.00;1.00
5258;DHT22;2651;51.594;9.928;2022-12-29T00:22:34;10.00;1.00
5258;DHT22;2651;51.594;9.928;2022-12-29T00:23:54;10.00;1.00
5258;DHT22;2651;51.594;9.928;2022-12-29T00:25:29;10.00;1.00
5258;DHT22;2651;51.594;9.928;2022-12-29T00:27:03;10.00;1.00
5258;DHT22;2651;51.594;9.928;2022-12-29T00:28:28;10.10;1.00
5258;DHT22;2651;51.594;9.928;2022-12-29T00:29:49;10.10;1.00
5258;DHT22;2651;51.594;9.928;2022-12-29T00:31:12;10.10;1.00
5258;DHT22;2651;51.594;9.928;2022-12-29T00:32:33;10.10;1.00
5258;DHT22;2651;51.594;9.928;2022-12-29T00:33:53;10.10;1.00
5258;DHT22;2651;51.594;9.928;2022-12-29T00:35:31;10.10;1.00
5258;DHT22;2651;51.594;9.928;2022-12-29T00:36:37;10.00;1.00
5258;DHT22;2651;51.594;9.928;2022-12-29T00:37:44;10.00;1.00
5258;DHT22;2651;51.594;9.928;2022-12-29T00:39:12;10.00;1.00
5258;DHT22;2651;51.594;9.928;2022-12-29T00:40:32;10.10;1.00
5258;DHT22;2651;51.594;9.928;2022-12-29T00:41:52;10.10;1.00
5258;DHT22;2651;51.594;9.928;2022-12-29T00:43:13;10.10;1.00
5258;DHT22;2651;51.594;9.928;2022-12-29T00:44:33;10.10;1.00
5258;DHT22;2651;51.594;9.928;2022-12-29T00:45:35;10.10;1.00
5258;DHT22;2651;51.594;9.928;2022-12-29T00:46:38;10.10;1.00
5258;DHT22;2651;51.594;9.928;2022-12-29T00:47:40;10.10;1.00
5258;DHT22;2651;51.594;9.928;2022-12-29T00:48:41;10.10;1.00
5258;DHT22;2651;51.594;9.928;2022-12-29T00:50:01;10.10;1.00
5258;DHT22;2651;51.594;9.928;2022-12-29T00:51:03;10.10;1.00
5258;DHT22;2651;51.594;9.928;2022-12-29T00:52:07;10.10;1.00
5258;DHT22;2651;51.594;9.928;2022-12-29T00:53:09;10.10;1.00
5258;DHT22;2651;51.594;9.928;2022-12-29T00:54:12;10.10;1.00
5258;DHT22;2651;51.594;9.928;2022-12-29T00:55:14;10.10;1.00
5258;DHT22;2651;51.594;9.928;2022-12-29T00:56:16;10.10;1.00
5258;DHT22;2651;51.594;9.928;2022-12-29T00:57:18;10.10;1.00
5258;DHT22;2651;51.594;9.928;2022-12-29T00:58:20;10.10;1.00
5258;DHT22;2651;51.594;9.928;2022-12-29T00:59:22;10.10;1.00
5258;DHT22;2651;51.594;9.928;2022-12-29T01:00:25;10.10;1.00
5258;DHT22;2651;51.594;9.928;2022-12-29T01:01:27;10.10;1.00
5258;DHT22;2651;51.594;9.928;2022-12-29T01:02:29;10.10;1.00
5258;DHT22;2651;51.594;9.928;2022-12-29T01:03:31;10.10;1.00
5258;DHT22;2651;51.594;9.928;2022-12-29T01:04:33;10.10;1.00
5258;DHT22;2651;51.594;9.928;2022-12-29T01:05:38;10.10;1.00
5258;DHT22;2651;51.594;9.928;2022-12-29T01:06:40;10.10;1.00
5258;DHT22;2651;51.594;9.928;2022-12-29T01:07:42;10.10;95.10
5258;DHT22;2651;51.594;9.928;2022-12-29T01:08:44;10.10;1.00
5258;DHT22;2651;51.594;9.928;2022-12-29T01:09:45;10.10;1.00
5258;DHT22;2651;51.594;9.928;2022-12-29T01:11:08;10.10;6.60
5258;DHT22;2651;51.594;9.928;2022-12-29T01:12:10;10.10;1.00
5258;DHT22;2651;51.594;9.928;2022-12-29T01:13:12;10.10;1.00
5258;DHT22;2651;51.594;9.928;2022-12-29T01:14:14;10.20;1.00
5258;DHT22;2651;51.594;9.928;2022-12-29T01:15:15;10.20;56.10
5258;DHT22;2651;51.594;9.928;2022-12-29T01:16:17;10.20;4.80
5258;DHT22;2651;51.594;9.928;2022-12-29T01:17:19;10.20;36.60
5258;DHT22;2651;51.594;9.928;2022-12-29T01:18:21;10.20;99.90
5258;DHT22;2651;51.594;9.928;2022-12-29T01:19:23;10.20;76.00
5258;DHT22;2651;51.594;9.928;2022-12-29T01:20:25;10.20;99.90
5258;DHT22;2651;51.594;9.928;2022-12-29T01:21:29;10.20;99.90
5258;DHT22;2651;51.594;9.928;2022-12-29T01:22:30;10.20;99.90
5258;DHT22;2651;51.594;9.928;2022-12-29T01:23:32;10.20;99.90
5258;DHT22;2651;51.594;9.928;2022-12-29T01:24:35;10.20;99.90
5258;DHT22;2651;51.594;9.928;2022-12-29T01:25:36;10.10;99.90
5258;DHT22;2651;51.594;9.928;2022-12-29T01:26:38;10.20;99.90
5258;DHT22;2651;51.594;9.928;2022-12-29T01:27:40;10.20;99.90
5258;DHT22;2651;51.594;9.928;2022-12-29T01:28:41;10.20;99.90
5258;DHT22;2651;51.594;9.928;2022-12-29T01:29:43;10.20;99.90
5258;DHT22;2651;51.594;9.928;2022-12-29T01:30:45;10.20;99.90
5258;DHT22;2651;51.594;9.928;2022-12-29T01:31:46;10.20;1.00
5258;DHT22;2651;51.594;9.928;2022-12-29T01:32:48;10.20;1.00
5258;DHT22;2651;51.594;9.928;2022-12-29T01:33:50;10.20;1.00
5258;DHT22;2651;51.594;9.928;2022-12-29T01:34:51;10.20;99.90
5258;DHT22;2651;51.594;9.928;2022-12-29T01:35:53;10.20;1.00
5258;DHT22;2651;51.594;9.928;2022-12-29T01:36:55;10.20;1.00
5258;DHT22;2651;51.594;9.928;2022-12-29T01:37:56;10.20;1.00
5258;DHT22;2651;51.594;9.928;2022-12-29T01:38:58;10.20;1.00
5258;DHT22;2651;51.594;9.928;2022-12-29T01:40:00;10.20;1.00
5258;DHT22;2651;51.594;9.928;2022-12-29T01:41:02;10.20;1.00
5258;DHT22;2651;51.594;9.928;2022-12-29T01:42:04;10.20;1.00
5258;DHT22;2651;51.594;9.928;2022-12-29T01:43:09;10.30;1.00
5258;DHT22;2651;51.594;9.928;2022-12-29T01:44:47;10.30;1.00
5258;DHT22;2651;51.594;9.928;2022-12-29T01:45:51;10.30;1.00
5258;DHT22;2651;51.594;9.928;2022-12-29T01:46:54;10.30;1.00
5258;DHT22;2651;51.594;9.928;2022-12-29T01:48:01;10.30;1.00
5258;DHT22;2651;51.594;9.928;2022-12-29T01:49:26;10.30;1.00
5258;DHT22;2651;51.594;9.928;2022-12-29T01:50:32;10.30;1.00
5258;DHT22;2651;51.594;9.928;2022-12-29T01:51:41;10.30;1.00
5258;DHT22;2651;51.594;9.928;2022-12-29T01:52:56;10.30;1.00
5258;DHT22;2651;51.594;9.928;2022-12-29T01:54:00;10.30;1.00
5258;DHT22;2651;51.594;9.928;2022-12-29T01:55:04;10.40;1.00
5258;DHT22;2651;51.594;9.928;2022-12-29T01:56:11;10.40;1.00
5258;DHT22;2651;51.594;9.928;2022-12-29T01:57:18;10.40;1.00
5258;DHT22;2651;51.594;9.928;2022-12-29T01:58:22;10.40;1.00
5258;DHT22;2651;51.594;9.928;2022-12-29T01:59:29;10.50;1.00
5258;DHT22;2651;51.594;9.928;2022-12-29T02:00:32;10.50;1.00
5258;DHT22;2651;51.594;9.928;2022-12-29T02:01:34;10.50;1.00
5258;DHT22;2651;51.594;9.928;2022-12-29T02:02:36;10.50;1.00
5258;DHT22;2651;51.594;9.928;2022-12-29T02:03:39;10.50;1.00
5258;DHT22;2651;51.594;9.928;2022-12-29T02:04:42;10.50;1.00
5258;DHT22;2651;51.594;9.928;2022-12-29T02:07:11;10.50;1.00
5258;DHT22;2651;51.594;9.928;2022-12-29T02:08:16;10.50;1.00
5258;DHT22;2651;51.594;9.928;2022-12-29T02:09:19;10.40;1.00
5258;DHT22;2651;51.594;9.928;2022-12-29T02:10:22;10.40;1.00
5258;DHT22;2651;51.594;9.928;2022-12-29T02:11:26;10.40;1.00
5258;DHT22;2651;51.594;9.928;2022-12-29T02:12:30;10.40;1.00
5258;DHT22;2651;51.594;9.928;2022-12-29T02:13:32;10.50;1.00
5258;DHT22;2651;51.594;9.928;2022-12-29T02:14:34;10.50;1.00
5258;DHT22;2651;51.594;9.928;2022-12-29T02:15:48;10.50;1.00
5258;DHT22;2651;51.594;9.928;2022-12-29T02:17:28;10.50;1.00
5258;DHT22;2651;51.594;9.928;2022-12-29T02:21:24;10.60;1.00
5258;DHT22;2651;51.594;9.928;2022-12-29T02:24:35;10.70;99.90
5258;DHT22;2651;51.594;9.928;2022-12-29T02:29:02;10.70;99.90
5258;DHT22;2651;51.594;9.928;2022-12-29T02:30:16;10.70;99.90
5258;DHT22;2651;51.594;9.928;2022-12-29T02:31:31;10.70;99.90
5258;DHT22;2651;51.594;9.928;2022-12-29T02:33:09;10.70;99.90
5258;DHT22;2651;51.594;9.928;2022-12-29T02:37:20;10.80;1.00
5258;DHT22;2651;51.594;9.928;2022-12-29T02:38:48;10.70;99.90
5258;DHT22;2651;51.594;9.928;2022-12-29T02:41:23;10.80;99.90
5258;DHT22;2651;51.594;9.928;2022-12-29T02:44:25;10.80;99.90
5258;DHT22;2651;51.594;9.928;2022-12-29T02:45:38;10.80;99.90
5258;DHT22;2651;51.594;9.928;2022-12-29T02:46:47;10.80;99.90
5258;DHT22;2651;51.594;9.928;2022-12-29T02:48:37;10.80;99.90
5258;DHT22;2651;51.594;9.928;2022-12-29T02:49:54;10.80;99.90
5258;DHT22;2651;51.594;9.928;2022-12-29T02:51:09;10.80;99.90
5258;DHT22;2651;51.594;9.928;2022-12-29T02:52:16;10.90;99.90
5258;DHT22;2651;51.594;9.928;2022-12-29T02:53:19;10.90;1.00
5258;DHT22;2651;51.594;9.928;2022-12-29T02:54:42;10.90;99.90
5258;DHT22;2651;51.594;9.928;2022-12-29T02:55:51;10.90;1.00
5258;DHT22;2651;51.594;9.928;2022-12-29T02:56:52;10.90;99.90
5258;DHT22;2651;51.594;9.928;2022-12-29T02:59:17;10.90;99.90
5258;DHT22;2651;51.594;9.928;2022-12-29T03:00:19;10.90;99.90
5258;DHT22;2651;51.594;9.928;2022-12-29T03:04:12;10.90;99.90
5258;DHT22;2651;51.594;9.928;2022-12-29T03:05:41;11.00;1.00
5258;DHT22;2651;51.594;9.928;2022-12-29T03:07:14;10.90;1.00
5258;DHT22;2651;51.594;9.928;2022-12-29T03:08:43;11.00;99.90
5258;DHT22;2651;51.594;9.928;2022-12-29T03:10:07;11.00;1.00
5258;DHT22;2651;51.594;9.928;2022-12-29T03:11:33;11.00;1.00
5258;DHT22;2651;51.594;9.928;2022-12-29T03:13:02;11.00;1.00
5258;DHT22;2651;51.594;9.928;2022-12-29T03:14:31;11.00;1.00
5258;DHT22;2651;51.594;9.928;2022-12-29T03:16:10;10.90;1.00
5258;DHT22;2651;51.594;9.928;2022-12-29T03:18:55;10.90;1.00
5258;DHT22;2651;51.594;9.928;2022-12-29T03:20:07;10.90;1.00
5258;DHT22;2651;51.594;9.928;2022-12-29T03:21:22;10.80;1.00
5258;DHT22;2651;51.594;9.928;2022-12-29T03:22:47;10.80;1.00
5258;DHT22;2651;51.594;9.928;2022-12-29T03:23:50;10.90;1.00
5258;DHT22;2651;51.594;9.928;2022-12-29T03:24:59;10.90;1.00
5258;DHT22;2651;51.594;9.928;2022-12-29T03:26:05;10.80;1.00
5258;DHT22;2651;51.594;9.928;2022-12-29T03:27:12;10.90;1.00
5258;DHT22;2651;51.594;9.928;2022-12-29T03:28:22;10.90;1.00
5258;DHT22;2651;51.594;9.928;2022-12-29T03:29:26;10.90;1.00
5258;DHT22;2651;51.594;9.928;2022-12-29T03:30:30;10.90;1.00
5258;DHT22;2651;51.594;9.928;2022-12-29T03:31:35;10.90;1.00
5258;DHT22;2651;51.594;9.928;2022-12-29T03:32:44;10.90;1.00
5258;DHT22;2651;51.594;9.928;2022-12-29T03:33:47;10.90;1.00
5258;DHT22;2651;51.594;9.928;2022-12-29T03:34:50;10.90;1.00
5258;DHT22;2651;51.594;9.928;2022-12-29T03:35:55;10.80;46.70
5258;DHT22;2651;51.594;9.928;2022-12-29T03:37:05;10.80;1.00
5258;DHT22;2651;51.594;9.928;2022-12-29T03:38:15;10.80;1.00
5258;DHT22;2651;51.594;9.928;2022-12-29T03:39:22;10.80;1.00
5258;DHT22;2651;51.594;9.928;2022-12-29T03:40:26;10.90;1.00
5258;DHT22;2651;51.594;9.928;2022-12-29T03:41:30;10.90;1.00
5258;DHT22;2651;51.594;9.928;2022-12-29T03:42:35;10.90;1.00
5258;DHT22;2651;51.594;9.928;2022-12-29T03:43:41;10.90;1.00
5258;DHT22;2651;51.594;9.928;2022-12-29T03:44:43;10.90;1.00
5258;DHT22;2651;51.594;9.928;2022-12-29T03:45:46;10.90;1.00
5258;DHT22;2651;51.594;9.928;2022-12-29T03:46:47;10.90;1.00
5258;DHT22;2651;51.594;9.928;2022-12-29T03:47:50;10.90;1.00
5258;DHT22;2651;51.594;9.928;2022-12-29T03:48:52;10.90;1.00
5258;DHT22;2651;51.594;9.928;2022-12-29T03:49:54;10.90;1.00
5258;DHT22;2651;51.594;9.928;2022-12-29T03:50:55;10.90;1.00
5258;DHT22;2651;51.594;9.928;2022-12-29T03:51:57;10.90;1.00
5258;DHT22;2651;51.594;9.928;2022-12-29T03:52:59;10.90;1.00
5258;DHT22;2651;51.594;9.928;2022-12-29T03:54:00;11.00;1.00
5258;DHT22;2651;51.594;9.928;2022-12-29T03:55:02;10.90;1.00
5258;DHT22;2651;51.594;9.928;2022-12-29T03:56:04;10.90;1.00
5258;DHT22;2651;51.594;9.928;2022-12-29T03:57:06;11.00;1.00
5258;DHT22;2651;51.594;9.928;2022-12-29T03:58:08;10.90;99.90
5258;DHT22;2651;51.594;9.928;2022-12-29T03:59:09;11.00;1.00
5258;DHT22;2651;51.594;9.928;2022-12-29T04:00:11;10.90;1.00
5258;DHT22;2651;51.594;9.928;2022-12-29T04:01:13;10.90;1.00
5258;DHT22;2651;51.594;9.928;2022-12-29T04:02:15;10.90;99.90
5258;DHT22;2651;51.594;9.928;2022-12-29T04:03:18;10.90;1.00
5258;DHT22;2651;51.594;9.928;2022-12-29T04:04:20;10.90;1.00
5258;DHT22;2651;51.594;9.928;2022-12-29T04:05:22;10.90;99.90
5258;DHT22;2651;51.594;9.928;2022-12-29T04:06:24;10.90;99.90
5258;DHT22;2651;51.594;9.928;2022-12-29T04:07:26;10.90;99.90
5258;DHT22;2651;51.594;9.928;2022-12-29T04:08:28;10.90;1.00
5258;DHT22;2651;51.594;9.928;2022-12-29T04:09:29;10.90;99.90
5258;DHT22;2651;51.594;9.928;2022-12-29T04:10:32;10.90;1.00
5258;DHT22;2651;51.594;9.928;2022-12-29T04:11:34;10.90;99.90
5258;DHT22;2651;51.594;9.928;2022-12-29T04:12:36;11.00;1.00
5258;DHT22;2651;51.594;9.928;2022-12-29T04:13:38;10.90;99.90
5258;DHT22;2651;51.594;9.928;2022-12-29T04:14:42;10.90;99.90
5258;DHT22;2651;51.594;9.928;2022-12-29T04:15:44;11.00;99.90
5258;DHT22;2651;51.594;9.928;2022-12-29T04:16:46;10.90;99.90
5258;DHT22;2651;51.594;9.928;2022-12-29T04:17:48;10.90;99.90
5258;DHT22;2651;51.594;9.928;2022-12-29T04:18:49;11.00;99.90
5258;DHT22;2651;51.594;9.928;2022-12-29T04:19:51;10.90;99.90
5258;DHT22;2651;51.594;9.928;2022-12-29T04:20:53;10.90;99.90
5258;DHT22;2651;51.594;9.928;2022-12-29T04:22:08;10.90;1.00
5258;DHT22;2651;51.594;9.928;2022-12-29T04:23:10;10.90;1.00
5258;DHT22;2651;51.594;9.928;2022-12-29T04:24:12;10.90;1.00
5258;DHT22;2651;51.594;9.928;2022-12-29T04:25:14;10.90;99.90
5258;DHT22;2651;51.594;9.928;2022-12-29T04:26:16;10.90;99.90
5258;DHT22;2651;51.594;9.928;2022-12-29T04:27:17;10.90;1.00
5258;DHT22;2651;51.594;9.928;2022-12-29T04:28:19;10.90;99.90
5258;DHT22;2651;51.594;9.928;2022-12-29T04:29:21;10.90;99.90
5258;DHT22;2651;51.594;9.928;2022-12-29T04:30:23;10.90;1.00
5258;DHT22;2651;51.594;9.928;2022-12-29T04:31:25;10.90;1.00
5258;DHT22;2651;51.594;9.928;2022-12-29T04:32:26;11.00;1.00
5258;DHT22;2651;51.594;9.928;2022-12-29T04:33:28;10.90;1.00
5258;DHT22;2651;51.594;9.928;2022-12-29T04:34:30;10.90;1.00
5258;DHT22;2651;51.594;9.928;2022-12-29T04:35:32;10.90;1.00
5258;DHT22;2651;51.594;9.928;2022-12-29T04:36:36;10.90;1.00
5258;DHT22;2651;51.594;9.928;2022-12-29T04:37:38;10.90;1.00
5258;DHT22;2651;51.594;9.928;2022-12-29T04:38:40;10.80;1.00
5258;DHT22;2651;51.594;9.928;2022-12-29T04:39:42;10.90;1.00
5258;DHT22;2651;51.594;9.928;2022-12-29T04:40:44;10.90;1.00
5258;DHT22;2651;51.594;9.928;2022-12-29T04:41:46;10.80;1.00
5258;DHT22;2651;51.594;9.928;2022-12-29T04:42:48;10.80;1.00
5258;DHT22;2651;51.594;9.928;2022-12-29T04:43:50;10.90;1.00
5258;DHT22;2651;51.594;9.928;2022-12-29T04:44:51;10.90;1.00
5258;DHT22;2651;51.594;9.928;2022-12-29T04:45:53;10.90;1.00
5258;DHT22;2651;51.594;9.928;2022-12-29T04:46:55;10.90;1.00
5258;DHT22;2651;51.594;9.928;2022-12-29T04:47:57;10.90;1.00
5258;DHT22;2651;51.594;9.928;2022-12-29T04:48:58;10.90;1.00
5258;DHT22;2651;51.594;9.928;2022-12-29T04:50:02;10.90;1.00
5258;DHT22;2651;51.594;9.928;2022-12-29T04:51:04;10.90;1.00
5258;DHT22;2651;51.594;9.928;2022-12-29T04:52:06;10.90;1.00
5258;DHT22;2651;51.594;9.928;2022-12-29T04:53:09;10.90;1.00
5258;DHT22;2651;51.594;9.928;2022-12-29T04:54:11;10.90;1.00
5258;DHT22;2651;51.594;9.928;2022-12-29T04:55:13;10.90;90.30
5258;DHT22;2651;51.594;9.928;2022-12-29T04:56:15;10.90;25.60
5258;DHT22;2651;51.594;9.928;2022-12-29T04:57:18;10.90;27.20
5258;DHT22;2651;51.594;9.928;2022-12-29T04:58:20;10.90;52.50
5258;DHT22;2651;51.594;9.928;2022-12-29T04:59:23;10.90;1.00
5258;DHT22;2651;51.594;9.928;2022-12-29T05:00:25;10.90;1.00
5258;DHT22;2651;51.594;9.928;2022-12-29T05:01:27;10.90;1.00
5258;DHT22;2651;51.594;9.928;2022-12-29T05:02:29;10.90;1.00
5258;DHT22;2651;51.594;9.928;2022-12-29T05:03:31;10.90;1.00
5258;DHT22;2651;51.594;9.928;2022-12-29T05:04:33;10.90;95.60
5258;DHT22;2651;51.594;9.928;2022-12-29T05:05:35;10.90;2.20
5258;DHT22;2651;51.594;9.928;2022-12-29T05:06:36;10.90;1.00
5258;DHT22;2651;51.594;9.928;2022-12-29T05:07:38;10.90;99.90
5258;DHT22;2651;51.594;9.928;2022-12-29T05:08:40;10.90;99.90
5258;DHT22;2651;51.594;9.928;2022-12-29T05:09:42;10.90;1.00
5258;DHT22;2651;51.594;9.928;2022-12-29T05:10:45;10.90;40.00
5258;DHT22;2651;51.594;9.928;2022-12-29T05:11:47;10.90;13.70
5258;DHT22;2651;51.594;9.928;2022-12-29T05:12:49;11.00;99.90
5258;DHT22;2651;51.594;9.928;2022-12-29T05:13:51;11.00;15.00
5258;DHT22;2651;51.594;9.928;2022-12-29T05:14:52;10.90;91.90
5258;DHT22;2651;51.594;9.928;2022-12-29T05:15:54;10.90;29.60
5258;DHT22;2651;51.594;9.928;2022-12-29T05:16:56;10.90;25.40
5258;DHT22;2651;51.594;9.928;2022-12-29T05:17:58;10.90;44.80
5258;DHT22;2651;51.594;9.928;2022-12-29T05:18:59;10.90;64.10
5258;DHT22;2651;51.594;9.928;2022-12-29T05:20:01;11.00;20.90
5258;DHT22;2651;51.594;9.928;2022-12-29T05:21:03;10.90;39.30
5258;DHT22;2651;51.594;9.928;2022-12-29T05:22:05;11.00;25.20
5258;DHT22;2651;51.594;9.928;2022-12-29T05:23:07;11.00;73.90
5258;DHT22;2651;51.594;9.928;2022-12-29T05:24:09;11.00;8.30
5258;DHT22;2651;51.594;9.928;2022-12-29T05:25:11;11.00;1.00
5258;DHT22;2651;51.594;9.928;2022-12-29T05:26:13;10.90;5.40
5258;DHT22;2651;51.594;9.928;2022-12-29T05:27:15;11.00;34.00
5258;DHT22;2651;51.594;9.928;2022-12-29T05:28:17;11.00;99.90
5258;DHT22;2651;51.594;9.928;2022-12-29T05:29:19;11.00;93.80
5258;DHT22;2651;51.594;9.928;2022-12-29T05:30:20;11.00;92.80
5258;DHT22;2651;51.594;9.928;2022-12-29T05:31:22;11.00;99.90
5258;DHT22;2651;51.594;9.928;2022-12-29T05:32:24;10.90;99.90
5258;DHT22;2651;51.594;9.928;2022-12-29T05:33:26;10.90;99.90
5258;DHT22;2651;51.594;9.928;2022-12-29T05:34:27;10.90;99.90
5258;DHT22;2651;51.594;9.928;2022-12-29T05:35:29;10.90;99.90
5258;DHT22;2651;51.594;9.928;2022-12-29T05:36:32;10.90;99.90
5258;DHT22;2651;51.594;9.928;2022-12-29T05:37:38;11.00;99.90
5258;DHT22;2651;51.594;9.928;2022-12-29T05:38:40;11.00;99.90
5258;DHT22;2651;51.594;9.928;2022-12-29T05:39:42;11.00;99.90
5258;DHT22;2651;51.594;9.928;2022-12-29T05:40:44;10.90;99.90
5258;DHT22;2651;51.594;9.928;2022-12-29T05:41:45;11.00;99.90
5258;DHT22;2651;51.594;9.928;2022-12-29T05:42:47;10.90;99.90
5258;DHT22;2651;51.594;9.928;2022-12-29T05:43:49;10.90;99.90
5258;DHT22;2651;51.594;9.928;2022-12-29T05:44:50;10.90;99.90
5258;DHT22;2651;51.594;9.928;2022-12-29T05:45:55;10.90;99.90
5258;DHT22;2651;51.594;9.928;2022-12-29T05:46:57;10.90;99.90
5258;DHT22;2651;51.594;9.928;2022-12-29T05:47:59;10.90;99.90
5258;DHT22;2651;51.594;9.928;2022-12-29T05:49:01;10.90;99.90
5258;DHT22;2651;51.594;9.928;2022-12-29T05:50:03;10.90;99.90
5258;DHT22;2651;51.594;9.928;2022-12-29T05:51:05;10.90;1.00
5258;DHT22;2651;51.594;9.928;2022-12-29T05:52:06;10.80;99.90
5258;DHT22;2651;51.594;9.928;2022-12-29T05:53:09;10.80;99.90
5258;DHT22;2651;51.594;9.928;2022-12-29T05:54:10;10.90;99.90
5258;DHT22;2651;51.594;9.928;2022-12-29T05:55:12;10.90;99.90
5258;DHT22;2651;51.594;9.928;2022-12-29T05:56:15;10.90;99.90
5258;DHT22;2651;51.594;9.928;2022-12-29T05:57:16;10.90;99.90
5258;DHT22;2651;51.594;9.928;2022-12-29T05:58:20;10.90;99.90
5258;DHT22;2651;51.594;9.928;2022-12-29T05:59:22;10.90;99.90
5258;DHT22;2651;51.594;9.928;2022-12-29T06:00:27;10.90;99.90
5258;DHT22;2651;51.594;9.928;2022-12-29T06:01:28;10.90;99.90
5258;DHT22;2651;51.594;9.928;2022-12-29T06:02:33;10.90;99.90
5258;DHT22;2651;51.594;9.928;2022-12-29T06:03:36;10.90;99.90
5258;DHT22;2651;51.594;9.928;2022-12-29T06:04:40;11.00;99.90
5258;DHT22;2651;51.594;9.928;2022-12-29T06:05:41;11.00;99.90
5258;DHT22;2651;51.594;9.928;2022-12-29T06:06:43;11.00;94.90
5258;DHT22;2651;51.594;9.928;2022-12-29T06:07:45;10.90;99.90
5258;DHT22;2651;51.594;9.928;2022-12-29T06:08:47;10.90;99.90
5258;DHT22;2651;51.594;9.928;2022-12-29T06:09:49;11.00;59.40
5258;DHT22;2651;51.594;9.928;2022-12-29T06:10:50;11.10;47.90
5258;DHT22;2651;51.594;9.928;2022-12-29T06:11:52;11.10;1.00
5258;DHT22;2651;51.594;9.928;2022-12-29T06:12:54;11.10;1.00
5258;DHT22;2651;51.594;9.928;2022-12-29T06:13:55;11.10;43.30
5258;DHT22;2651;51.594;9.928;2022-12-29T06:14:57;11.10;99.90
5258;DHT22;2651;51.594;9.928;2022-12-29T06:15:59;11.10;99.90
5258;DHT22;2651;51.594;9.928;2022-12-29T06:17:01;11.00;99.90
5258;DHT22;2651;51.594;9.928;2022-12-29T06:18:02;11.10;72.10
5258;DHT22;2651;51.594;9.928;2022-12-29T06:19:04;11.00;1.00
5258;DHT22;2651;51.594;9.928;2022-12-29T06:20:07;11.10;1.00
5258;DHT22;2651;51.594;9.928;2022-12-29T06:21:08;11.10;43.40
5258;DHT22;2651;51.594;9.928;2022-12-29T06:22:10;11.10;50.80
5258;DHT22;2651;51.594;9.928;2022-12-29T06:23:13;11.10;1.00
5258;DHT22;2651;51.594;9.928;2022-12-29T06:24:15;11.10;81.00
5258;DHT22;2651;51.594;9.928;2022-12-29T06:25:17;11.10;1.00
5258;DHT22;2651;51.594;9.928;2022-12-29T06:26:19;11.10;1.00
5258;DHT22;2651;51.594;9.928;2022-12-29T06:27:21;11.20;1.00
5258;DHT22;2651;51.594;9.928;2022-12-29T06:28:23;11.20;1.00
5258;DHT22;2651;51.594;9.928;2022-12-29T06:29:25;11.20;1.00
5258;DHT22;2651;51.594;9.928;2022-12-29T06:30:27;11.20;20.00
5258;DHT22;2651;51.594;9.928;2022-12-29T06:31:29;11.20;1.00
5258;DHT22;2651;51.594;9.928;2022-12-29T06:32:31;11.20;99.90
5258;DHT22;2651;51.594;9.928;2022-12-29T06:33:33;11.10;61.40
5258;DHT22;2651;51.594;9.928;2022-12-29T06:34:35;11.10;1.00
5258;DHT22;2651;51.594;9.928;2022-12-29T06:35:38;11.10;80.50
5258;DHT22;2651;51.594;9.928;2022-12-29T06:36:40;11.10;8.10
5258;DHT22;2651;51.594;9.928;2022-12-29T06:37:42;11.00;99.90
5258;DHT22;2651;51.594;9.928;2022-12-29T06:38:44;11.00;94.50
5258;DHT22;2651;51.594;9.928;2022-12-29T06:39:46;11.00;99.90
5258;DHT22;2651;51.594;9.928;2022-12-29T06:40:48;11.00;95.60
5258;DHT22;2651;51.594;9.928;2022-12-29T06:41:52;11.10;99.90
5258;DHT22;2651;51.594;9.928;2022-12-29T06:42:55;11.00;99.90
5258;DHT22;2651;51.594;9.928;2022-12-29T06:43:56;11.10;99.90
5258;DHT22;2651;51.594;9.928;2022-12-29T06:44:58;11.10;23.40
5258;DHT22;2651;51.594;9.928;2022-12-29T06:46:01;11.10;32.70
5258;DHT22;2651;51.594;9.928;2022-12-29T06:47:03;11.10;46.40
5258;DHT22;2651;51.594;9.928;2022-12-29T06:48:05;11.10;1.00
5258;DHT22;2651;51.594;9.928;2022-12-29T06:49:07;11.10;29.30
5258;DHT22;2651;51.594;9.928;2022-12-29T06:50:09;11.10;1.00
5258;DHT22;2651;51.594;9.928;2022-12-29T06:51:10;11.10;1.00
5258;DHT22;2651;51.594;9.928;2022-12-29T06:52:12;11.20;1.00
5258;DHT22;2651;51.594;9.928;2022-12-29T06:53:14;11.20;1.00
5258;DHT22;2651;51.594;9.928;2022-12-29T06:54:16;11.10;1.00
5258;DHT22;2651;51.594;9.928;2022-12-29T06:55:18;11.20;1.00
5258;DHT22;2651;51.594;9.928;2022-12-29T06:56:19;11.20;1.00
5258;DHT22;2651;51.594;9.928;2022-12-29T06:57:21;11.20;1.00
5258;DHT22;2651;51.594;9.928;2022-12-29T06:58:23;11.20;1.00
5258;DHT22;2651;51.594;9.928;2022-12-29T06:59:25;11.20;1.00
5258;DHT22;2651;51.594;9.928;2022-12-29T07:00:27;11.20;1.00
5258;DHT22;2651;51.594;9.928;2022-12-29T07:01:29;11.10;1.00
5258;DHT22;2651;51.594;9.928;2022-12-29T07:02:31;11.10;1.00
5258;DHT22;2651;51.594;9.928;2022-12-29T07:03:33;11.10;1.00
5258;DHT22;2651;51.594;9.928;2022-12-29T07:04:36;11.10;1.00
5258;DHT22;2651;51.594;9.928;2022-12-29T07:05:38;11.10;1.00
5258;DHT22;2651;51.594;9.928;2022-12-29T07:06:40;11.10;1.00
5258;DHT22;2651;51.594;9.928;2022-12-29T07:07:42;11.10;31.50
5258;DHT22;2651;51.594;9.928;2022-12-29T07:08:43;11.10;1.00
5258;DHT22;2651;51.594;9.928;2022-12-29T07:09:46;11.20;1.00
5258;DHT22;2651;51.594;9.928;2022-12-29T07:10:47;11.20;1.00
5258;DHT22;2651;51.594;9.928;2022-12-29T07:11:49;11.10;1.00
5258;DHT22;2651;51.594;9.928;2022-12-29T07:12:51;11.20;1.00
5258;DHT22;2651;51.594;9.928;2022-12-29T07:13:53;11.10;1.00
5258;DHT22;2651;51.594;9.928;2022-12-29T07:14:55;11.10;1.00
5258;DHT22;2651;51.594;9.928;2022-12-29T07:15:56;11.10;1.00
5258;DHT22;2651;51.594;9.928;2022-12-29T07:16:58;11.10;1.00
5258;DHT22;2651;51.594;9.928;2022-12-29T07:18:00;11.10;1.00
5258;DHT22;2651;51.594;9.928;2022-12-29T07:19:02;11.10;1.00
5258;DHT22;2651;51.594;9.928;2022-12-29T07:20:04;11.10;65.80
5258;DHT22;2651;51.594;9.928;2022-12-29T07:21:05;11.10;47.40
5258;DHT22;2651;51.594;9.928;2022-12-29T07:22:09;11.20;99.90
5258;DHT22;2651;51.594;9.928;2022-12-29T07:23:11;11.20;96.40
5258;DHT22;2651;51.594;9.928;2022-12-29T07:24:12;11.20;63.70
5258;DHT22;2651;51.594;9.928;2022-12-29T07:25:16;11.20;99.90
5258;DHT22;2651;51.594;9.928;2022-12-29T07:26:18;11.20;1.00
5258;DHT22;2651;51.594;9.928;2022-12-29T07:27:20;11.20;30.90
5258;DHT22;2651;51.594;9.928;2022-12-29T07:28:21;11.20;47.30
5258;DHT22;2651;51.594;9.928;2022-12-29T07:29:23;11.20;64.70
5258;DHT22;2651;51.594;9.928;2022-12-29T07:30:25;11.20;1.00
5258;DHT22;2651;51.594;9.928;2022-12-29T07:31:27;11.20;4.00